createdAt,value
2018-08-09T00:00:59.700Z,19.90
2018-08-09T00:05:54.214Z,19.90
2018-08-09T00:10:48.926Z,19.90
2018-08-09T00:15:43.382Z,20.00
2018-08-09T00:20:37.983Z,20.10
2018-08-09T00:25:32.603Z,20.20
2018-08-09T00:30:27.075Z,20.20
2018-08-09T00:35:21.546Z,20.10
2018-08-09T00:40:16.282Z,20.10
2018-08-09T00:45:10.872Z,20.20
2018-08-09T00:50:05.959Z,20.30
2018-08-09T00:55:00.712Z,20.30
2018-08-09T00:59:55.198Z,20.40
2018-08-09T01:04:49.828Z,20.40
2018-08-09T01:09:44.316Z,20.30
2018-08-09T01:14:39.139Z,20.30
2018-08-09T01:19:33.577Z,20.20
2018-08-09T01:24:28.050Z,20.10
2018-08-09T01:29:22.482Z,20.10
2018-08-09T01:34:16.947Z,20.00
2018-08-09T01:39:13.221Z,20.00
2018-08-09T01:44:08.141Z,19.90
2018-08-09T01:49:03.063Z,19.90
2018-08-09T01:53:57.548Z,20.00
2018-08-09T01:58:52.588Z,20.00
2018-08-09T02:03:47.053Z,20.10
2018-08-09T02:08:41.836Z,20.00
2018-08-09T02:13:36.445Z,19.90
2018-08-09T02:18:31.107Z,19.90
2018-08-09T02:23:25.963Z,20.10
2018-08-09T02:28:20.874Z,20.30
2018-08-09T02:33:15.440Z,20.40
2018-08-09T02:38:10.227Z,20.40
2018-08-09T02:43:04.722Z,20.30
2018-08-09T02:47:59.462Z,20.30
2018-08-09T02:52:53.955Z,20.20
2018-08-09T02:57:48.520Z,20.10
2018-08-09T03:02:44.709Z,20.00
2018-08-09T03:07:39.213Z,19.90
2018-08-09T03:12:33.966Z,19.90
2018-08-09T03:17:28.476Z,19.90
2018-08-09T03:22:22.940Z,20.10
2018-08-09T03:27:17.432Z,20.20
2018-08-09T03:32:11.980Z,20.30
2018-08-09T03:37:06.741Z,20.30
2018-08-09T03:42:01.507Z,20.40
2018-08-09T03:46:56.140Z,20.40
2018-08-09T03:51:50.594Z,20.50
2018-08-09T03:56:45.045Z,20.60
2018-08-09T04:01:39.648Z,20.70
2018-08-09T04:06:34.210Z,20.80
2018-08-09T04:11:28.712Z,21.00
2018-08-09T04:16:23.343Z,20.90
2018-08-09T04:21:18.425Z,20.90
2018-08-09T04:26:12.910Z,21.00
2018-08-09T04:31:07.811Z,21.00
2018-08-09T04:36:02.792Z,21.00
2018-08-09T04:40:57.281Z,21.00
2018-08-09T04:45:52.129Z,21.00
2018-08-09T04:50:46.600Z,21.10
2018-08-09T04:55:41.066Z,21.10
2018-08-09T05:00:35.776Z,21.10
2018-08-09T05:05:30.209Z,21.20
2018-08-09T05:10:24.921Z,21.20
2018-08-09T05:15:19.596Z,21.30
2018-08-09T05:20:14.120Z,21.30
2018-08-09T05:25:08.585Z,21.40
2018-08-09T05:30:03.768Z,21.50
2018-08-09T05:34:58.467Z,21.60
2018-08-09T05:39:52.956Z,21.60
2018-08-09T05:44:47.416Z,21.60
2018-08-09T05:49:42.207Z,21.60
2018-08-09T05:54:37.085Z,22.10
2018-08-09T05:59:31.806Z,23.70
2018-08-09T06:04:28.511Z,25.50
2018-08-09T06:09:23.936Z,27.20
2018-08-09T06:14:18.463Z,28.80
2018-08-09T06:19:13.542Z,28.90
2018-08-09T06:24:08.070Z,27.60
2018-08-09T06:29:02.743Z,26.20
2018-08-09T06:33:57.258Z,25.50
2018-08-09T06:38:51.736Z,24.70
2018-08-09T06:43:46.448Z,24.40
2018-08-09T06:48:41.000Z,24.30
2018-08-09T06:53:35.462Z,26.70
2018-08-09T06:58:29.944Z,27.30
2018-08-09T07:03:25.089Z,29.20
2018-08-09T07:08:19.827Z,30.30
2018-08-09T07:13:14.557Z,33.00
2018-08-09T07:18:09.462Z,34.50
2018-08-09T07:23:04.591Z,34.10
2018-08-09T07:27:59.336Z,33.50
2018-08-09T07:32:54.609Z,35.10
2018-08-09T07:37:49.317Z,36.20
2018-08-09T07:42:44.570Z,34.90
2018-08-09T07:47:39.394Z,33.00
2018-08-09T07:52:34.441Z,33.70
2018-08-09T07:57:29.135Z,32.90
2018-08-09T08:02:24.644Z,32.60
2018-08-09T08:07:19.412Z,35.50
2018-08-09T08:12:14.165Z,38.50
2018-08-09T08:17:09.053Z,40.50
2018-08-09T08:22:04.614Z,40.70
2018-08-09T08:26:59.369Z,41.70
2018-08-09T08:31:54.072Z,41.80
2018-08-09T08:36:48.990Z,42.50
2018-08-09T08:41:44.401Z,41.50
2018-08-09T08:46:39.437Z,37.00
2018-08-09T08:51:34.172Z,34.30
2018-08-09T08:56:28.910Z,33.00
2018-08-09T09:01:24.111Z,32.30
2018-08-09T09:06:18.990Z,31.70
2018-08-09T09:11:13.737Z,31.50
2018-08-09T09:16:08.478Z,31.80
2018-08-09T09:21:03.285Z,31.70
2018-08-09T09:25:57.995Z,31.70
2018-08-09T09:30:52.740Z,31.70
2018-08-09T09:35:47.459Z,31.80
2018-08-09T09:40:42.511Z,33.70
2018-08-09T09:45:37.289Z,37.40
2018-08-09T09:50:32.449Z,39.00
2018-08-09T09:55:27.227Z,40.80
2018-08-09T10:00:27.046Z,40.50
2018-08-09T10:05:22.210Z,37.20
2018-08-09T10:10:17.045Z,34.20
2018-08-09T10:15:12.197Z,32.70
2018-08-09T10:20:07.830Z,31.80
2018-08-09T10:25:02.582Z,31.20
2018-08-09T10:29:57.349Z,31.10
2018-08-09T10:34:52.239Z,31.10
2018-08-09T10:39:47.153Z,31.30
2018-08-09T10:44:41.862Z,31.70
2018-08-09T10:49:36.900Z,31.50
2018-08-09T10:54:31.754Z,31.30
2018-08-09T10:59:26.669Z,31.50
2018-08-09T11:04:21.417Z,31.90
2018-08-09T11:09:16.160Z,32.30
2018-08-09T11:14:10.949Z,32.60
2018-08-09T11:19:06.169Z,32.50
2018-08-09T11:24:01.395Z,32.30
2018-08-09T11:28:56.456Z,32.30
2018-08-09T11:33:51.498Z,32.50
2018-08-09T11:38:46.598Z,32.60
2018-08-09T11:43:41.600Z,32.80
2018-08-09T11:48:36.547Z,32.60
2018-08-09T11:53:31.443Z,32.30
2018-08-09T11:58:26.201Z,32.20
2018-08-09T12:03:21.180Z,31.90
2018-08-09T12:08:16.351Z,31.70
2018-08-09T12:13:11.145Z,31.40
2018-08-09T12:18:06.271Z,31.30
2018-08-09T12:23:01.368Z,31.40
2018-08-09T12:27:56.134Z,31.00
2018-08-09T12:32:50.972Z,31.00
2018-08-09T12:37:45.730Z,30.90
2018-08-09T12:42:41.345Z,31.00
2018-08-09T12:47:36.796Z,31.00
2018-08-09T12:52:31.541Z,30.90
2018-08-09T12:57:26.917Z,30.70
2018-08-09T13:02:21.715Z,30.50
2018-08-09T13:07:17.192Z,30.30
2018-08-09T13:12:11.967Z,30.00
2018-08-09T13:17:07.629Z,29.80
2018-08-09T13:22:02.424Z,29.50
2018-08-09T13:26:57.189Z,29.00
2018-08-09T13:31:51.957Z,28.30
2018-08-09T13:36:47.259Z,27.80
2018-08-09T13:41:43.258Z,27.30
2018-08-09T13:46:38.019Z,27.00
2018-08-09T13:51:32.730Z,26.60
2018-08-09T13:56:27.594Z,26.30
2018-08-09T14:01:22.025Z,25.90
2018-08-09T14:06:16.546Z,25.80
2018-08-09T14:11:11.128Z,26.00
2018-08-09T14:16:06.019Z,26.10
2018-08-09T14:21:02.851Z,26.10
2018-08-09T14:26:10.085Z,26.40
2018-08-09T14:31:10.712Z,26.90
2018-08-09T14:36:05.222Z,27.40
2018-08-09T14:41:00.202Z,27.50
2018-08-09T14:45:55.107Z,27.60
2018-08-09T14:50:50.279Z,27.50
2018-08-09T14:55:45.645Z,27.30
2018-08-09T15:00:40.961Z,27.10
2018-08-09T15:05:35.937Z,27.00
2018-08-09T15:10:31.036Z,26.80
2018-08-09T15:15:25.608Z,26.80
2018-08-09T15:20:20.372Z,26.70
2018-08-09T15:25:15.568Z,26.70
2018-08-09T15:30:15.847Z,26.70
2018-08-09T15:35:10.480Z,26.50
2018-08-09T15:40:06.048Z,26.10
2018-08-09T15:45:00.706Z,26.00
2018-08-09T15:49:55.210Z,25.90
2018-08-09T15:54:49.669Z,25.80
2018-08-09T15:59:44.566Z,25.70
2018-08-09T16:04:39.349Z,25.80
2018-08-09T16:09:33.842Z,25.90
2018-08-09T16:14:28.312Z,25.80
2018-08-09T16:19:22.823Z,25.80
2018-08-09T16:24:17.565Z,25.90
2018-08-09T16:29:12.057Z,26.10
2018-08-09T16:34:06.837Z,26.00
2018-08-09T16:39:01.621Z,26.00
2018-08-09T16:43:56.320Z,25.80
2018-08-09T16:48:50.814Z,25.70
2018-08-09T16:53:45.437Z,25.80
2018-08-09T16:58:40.123Z,25.80
2018-08-09T17:03:34.629Z,26.00
2018-08-09T17:08:29.086Z,26.20
2018-08-09T17:13:23.635Z,26.40
2018-08-09T17:18:18.620Z,26.60
2018-08-09T17:23:13.073Z,26.60
2018-08-09T17:28:07.572Z,26.50
2018-08-09T17:33:02.150Z,26.40
2018-08-09T17:37:57.132Z,26.20
2018-08-09T17:42:52.678Z,26.10
2018-08-09T17:47:47.243Z,25.90
2018-08-09T17:52:41.961Z,25.90
2018-08-09T17:57:36.422Z,25.80
2018-08-09T18:02:31.057Z,25.70
2018-08-09T18:07:25.492Z,25.50
2018-08-09T18:12:20.433Z,25.40
2018-08-09T18:17:15.466Z,25.30
2018-08-09T18:22:10.732Z,25.10
2018-08-09T18:27:05.224Z,24.70
2018-08-09T18:31:59.698Z,24.50
2018-08-09T18:36:54.244Z,24.20
2018-08-09T18:41:48.742Z,24.10
2018-08-09T18:46:43.219Z,23.90
2018-08-09T18:51:37.723Z,23.60
2018-08-09T18:56:32.288Z,23.30
2018-08-09T19:01:26.735Z,23.00
2018-08-09T19:06:21.654Z,22.80
2018-08-09T19:11:16.121Z,22.50
2018-08-09T19:16:10.625Z,22.40
2018-08-09T19:21:06.185Z,22.20
2018-08-09T19:26:00.814Z,22.10
2018-08-09T19:30:55.793Z,22.00
2018-08-09T19:35:50.371Z,21.90
2018-08-09T19:40:45.066Z,21.80
2018-08-09T19:45:39.774Z,21.70
2018-08-09T19:50:34.384Z,21.60
2018-08-09T19:55:28.892Z,21.60
2018-08-09T20:00:27.902Z,21.50
2018-08-09T20:05:22.956Z,21.40
2018-08-09T20:10:17.510Z,21.30
2018-08-09T20:15:14.456Z,21.20
2018-08-09T20:20:09.986Z,21.20
2018-08-09T20:25:05.720Z,21.20
2018-08-09T20:30:00.402Z,21.10
2018-08-09T20:34:55.094Z,21.00
2018-08-09T20:39:49.546Z,21.00
2018-08-09T20:44:44.021Z,20.90
2018-08-09T20:49:38.570Z,20.90
2018-08-09T20:54:33.244Z,20.80
2018-08-09T20:59:27.724Z,20.80
2018-08-09T21:04:22.416Z,20.70
2018-08-09T21:09:16.906Z,20.50
2018-08-09T21:14:11.604Z,20.30
2018-08-09T21:19:06.737Z,20.10
2018-08-09T21:24:02.749Z,19.90
2018-08-09T21:28:59.184Z,19.70
2018-08-09T21:33:54.535Z,19.40
2018-08-09T21:38:49.210Z,19.20
2018-08-09T21:43:43.859Z,19.10
2018-08-09T21:48:38.715Z,19.10
2018-08-09T21:53:33.175Z,19.20
2018-08-09T21:58:27.722Z,19.70
2018-08-09T22:03:27.646Z,20.40
2018-08-09T22:08:27.402Z,20.70
2018-08-09T22:13:29.391Z,20.90
2018-08-09T22:18:29.391Z,20.90
2018-08-09T22:23:24.016Z,20.70
2018-08-09T22:28:18.501Z,20.80
2018-08-09T22:33:12.982Z,20.90
2018-08-09T22:38:08.203Z,21.00
2018-08-09T22:43:02.767Z,21.00
2018-08-09T22:47:57.189Z,20.90
2018-08-09T22:52:52.323Z,20.80
2018-08-09T22:57:47.410Z,20.50
2018-08-09T23:02:41.979Z,20.10
2018-08-09T23:07:36.674Z,19.80
2018-08-09T23:12:31.254Z,19.60
2018-08-09T23:17:26.006Z,19.40
2018-08-09T23:22:20.532Z,19.30
2018-08-09T23:27:14.994Z,19.10
2018-08-09T23:32:09.540Z,18.90
2018-08-09T23:37:04.067Z,18.80
2018-08-09T23:41:58.547Z,18.50
2018-08-09T23:46:53.394Z,18.40
2018-08-09T23:51:48.060Z,18.20
2018-08-09T23:56:42.520Z,18.20
